sensor_id;sensor_type;location;lat;lon;timestamp;pressure;altitude;pressure_sealevel;temperature;humidity
76994;BME280;66749;47.406;18.822;2023-08-31T00:00:14;99692.50;;;15.48;87.44
76994;BME280;66749;47.406;18.822;2023-08-31T00:00:47;99693.59;;;15.46;87.83
76994;BME280;66749;47.406;18.822;2023-08-31T00:01:19;99692.63;;;15.47;87.68
76994;BME280;66749;47.406;18.822;2023-08-31T00:01:50;99692.50;;;15.48;87.19
76994;BME280;66749;47.406;18.822;2023-08-31T00:02:24;99698.47;;;15.50;87.48
76994;BME280;66749;47.406;18.822;2023-08-31T00:02:57;99694.88;;;15.51;87.04
76994;BME280;66749;47.406;18.822;2023-08-31T00:03:30;99695.84;;;15.50;87.55
76994;BME280;66749;47.406;18.822;2023-08-31T00:04:01;99696.69;;;15.51;87.37
76994;BME280;66749;47.406;18.822;2023-08-31T00:04:35;99700.28;;;15.50;87.81
76994;BME280;66749;47.406;18.822;2023-08-31T00:05:08;99695.13;;;15.48;88.54
76994;BME280;66749;47.406;18.822;2023-08-31T00:05:41;99700.38;;;15.48;88.35
76994;BME280;66749;47.406;18.822;2023-08-31T00:06:13;99695.03;;;15.50;87.74
76994;BME280;66749;47.406;18.822;2023-08-31T00:06:45;99694.88;;;15.51;87.80
76994;BME280;66749;47.406;18.822;2023-08-31T00:07:18;99698.34;;;15.52;88.00
76994;BME280;66749;47.406;18.822;2023-08-31T00:07:50;99696.53;;;15.52;87.76
76994;BME280;66749;47.406;18.822;2023-08-31T00:08:22;99701.09;;;15.50;88.36
76994;BME280;66749;47.406;18.822;2023-08-31T00:08:54;99697.50;;;15.51;87.87
76994;BME280;66749;47.406;18.822;2023-08-31T00:09:26;99694.19;;;15.49;87.73
76994;BME280;66749;47.406;18.822;2023-08-31T00:09:58;99702.06;;;15.49;87.66
76994;BME280;66749;47.406;18.822;2023-08-31T00:10:30;99697.75;;;15.48;88.00
76994;BME280;66749;47.406;18.822;2023-08-31T00:11:02;99696.81;;;15.49;88.18
76994;BME280;66749;47.406;18.822;2023-08-31T00:11:34;99703.75;;;15.50;88.15
76994;BME280;66749;47.406;18.822;2023-08-31T00:12:06;99699.31;;;15.51;88.04
76994;BME280;66749;47.406;18.822;2023-08-31T00:12:37;99700.81;;;15.53;87.56
76994;BME280;66749;47.406;18.822;2023-08-31T00:13:09;99698.06;;;15.55;87.47
76994;BME280;66749;47.406;18.822;2023-08-31T00:13:41;99697.22;;;15.54;87.82
76994;BME280;66749;47.406;18.822;2023-08-31T00:14:14;99696.25;;;15.55;87.94
76994;BME280;66749;47.406;18.822;2023-08-31T00:14:46;99696.25;;;15.55;87.50
76994;BME280;66749;47.406;18.822;2023-08-31T00:15:17;99698.88;;;15.55;87.80
76994;BME280;66749;47.406;18.822;2023-08-31T00:15:49;99693.63;;;15.55;87.94
76994;BME280;66749;47.406;18.822;2023-08-31T00:16:24;99692.25;;;15.51;87.69
76994;BME280;66749;47.406;18.822;2023-08-31T00:16:58;99689.47;;;15.53;87.79
76994;BME280;66749;47.406;18.822;2023-08-31T00:17:30;99689.47;;;15.53;88.12
76994;BME280;66749;47.406;18.822;2023-08-31T00:18:02;99699.84;;;15.54;87.26
76994;BME280;66749;47.406;18.822;2023-08-31T00:18:37;99692.25;;;15.51;87.91
76994;BME280;66749;47.406;18.822;2023-08-31T00:19:09;99690.31;;;15.53;87.15
76994;BME280;66749;47.406;18.822;2023-08-31T00:19:41;99688.66;;;15.52;87.19
76994;BME280;66749;47.406;18.822;2023-08-31T00:20:13;99685.03;;;15.53;87.66
76994;BME280;66749;47.406;18.822;2023-08-31T00:20:44;99687.69;;;15.53;86.98
76994;BME280;66749;47.406;18.822;2023-08-31T00:21:16;99688.66;;;15.52;87.24
76994;BME280;66749;47.406;18.822;2023-08-31T00:21:48;99687.81;;;15.52;87.52
76994;BME280;66749;47.406;18.822;2023-08-31T00:22:20;99687.13;;;15.50;87.65
76994;BME280;66749;47.406;18.822;2023-08-31T00:22:52;99686.41;;;15.48;87.26
76994;BME280;66749;47.406;18.822;2023-08-31T00:23:24;99683.66;;;15.49;87.99
76994;BME280;66749;47.406;18.822;2023-08-31T00:23:56;99687.97;;;15.50;87.05
76994;BME280;66749;47.406;18.822;2023-08-31T00:24:28;99684.34;;;15.51;87.37
76994;BME280;66749;47.406;18.822;2023-08-31T00:25:07;99679.09;;;15.51;86.94
76994;BME280;66749;47.406;18.822;2023-08-31T00:25:40;99681.16;;;15.48;87.66
76994;BME280;66749;47.406;18.822;2023-08-31T00:26:15;99683.09;;;15.46;87.70
76994;BME280;66749;47.406;18.822;2023-08-31T00:26:48;99686.56;;;15.46;87.18
76994;BME280;66749;47.406;18.822;2023-08-31T00:27:22;99688.22;;;15.47;87.42
76994;BME280;66749;47.406;18.822;2023-08-31T00:27:55;99688.22;;;15.47;87.96
76994;BME280;66749;47.406;18.822;2023-08-31T00:28:28;99683.78;;;15.48;88.21
76994;BME280;66749;47.406;18.822;2023-08-31T00:29:00;99684.50;;;15.50;87.86
76994;BME280;66749;47.406;18.822;2023-08-31T00:29:32;99687.25;;;15.48;88.31
76994;BME280;66749;47.406;18.822;2023-08-31T00:30:05;99688.94;;;15.49;88.15
76994;BME280;66749;47.406;18.822;2023-08-31T00:30:39;99691.56;;;15.49;88.33
76994;BME280;66749;47.406;18.822;2023-08-31T00:31:11;99693.47;;;15.47;88.56
76994;BME280;66749;47.406;18.822;2023-08-31T00:31:43;99695.84;;;15.50;88.73
76994;BME280;66749;47.406;18.822;2023-08-31T00:32:19;99696.53;;;15.52;88.65
76994;BME280;66749;47.406;18.822;2023-08-31T00:32:54;99699.16;;;15.52;88.76
76994;BME280;66749;47.406;18.822;2023-08-31T00:33:27;99695.56;;;15.53;88.00
76994;BME280;66749;47.406;18.822;2023-08-31T00:33:59;99704.16;;;15.55;88.84
76994;BME280;66749;47.406;18.822;2023-08-31T00:34:35;99705.81;;;15.57;88.96
76994;BME280;66749;47.406;18.822;2023-08-31T00:35:08;99708.31;;;15.58;89.17
76994;BME280;66749;47.406;18.822;2023-08-31T00:35:40;99701.25;;;15.59;88.37
76994;BME280;66749;47.406;18.822;2023-08-31T00:36:17;99704.88;;;15.58;88.99
76994;BME280;66749;47.406;18.822;2023-08-31T00:36:50;99702.34;;;15.56;88.83
76994;BME280;66749;47.406;18.822;2023-08-31T00:37:22;99700.53;;;15.57;89.64
76994;BME280;66749;47.406;18.822;2023-08-31T00:37:55;99702.25;;;15.58;89.23
76994;BME280;66749;47.406;18.822;2023-08-31T00:38:31;99709.72;;;15.62;88.89
76994;BME280;66749;47.406;18.822;2023-08-31T00:39:04;99702.94;;;15.60;89.38
76994;BME280;66749;47.406;18.822;2023-08-31T00:39:42;99708.19;;;15.60;89.06
76994;BME280;66749;47.406;18.822;2023-08-31T00:40:16;99701.84;;;15.62;89.30
76994;BME280;66749;47.406;18.822;2023-08-31T00:40:48;99706.13;;;15.63;88.73
76994;BME280;66749;47.406;18.822;2023-08-31T00:41:19;99705.19;;;15.64;88.73
76994;BME280;66749;47.406;18.822;2023-08-31T00:41:52;99710.31;;;15.66;89.39
76994;BME280;66749;47.406;18.822;2023-08-31T00:42:25;99705.19;;;15.64;88.82
76994;BME280;66749;47.406;18.822;2023-08-31T00:42:57;99714.84;;;15.64;89.49
76994;BME280;66749;47.406;18.822;2023-08-31T00:43:29;99712.94;;;15.66;89.02
76994;BME280;66749;47.406;18.822;2023-08-31T00:44:01;99714.75;;;15.65;89.13
76994;BME280;66749;47.406;18.822;2023-08-31T00:44:34;99711.28;;;15.65;89.10
76994;BME280;66749;47.406;18.822;2023-08-31T00:45:06;99717.38;;;15.65;89.08
76994;BME280;66749;47.406;18.822;2023-08-31T00:45:38;99704.09;;;15.67;88.96
76994;BME280;66749;47.406;18.822;2023-08-31T00:46:12;99711.84;;;15.68;88.92
76994;BME280;66749;47.406;18.822;2023-08-31T00:46:45;99710.84;;;15.69;88.42
76994;BME280;66749;47.406;18.822;2023-08-31T00:47:18;99719.88;;;15.67;88.92
76994;BME280;66749;47.406;18.822;2023-08-31T00:47:50;99711.69;;;15.70;88.41
76994;BME280;66749;47.406;18.822;2023-08-31T00:48:22;99713.50;;;15.69;89.08
76994;BME280;66749;47.406;18.822;2023-08-31T00:48:54;99716.94;;;15.70;88.75
76994;BME280;66749;47.406;18.822;2023-08-31T00:49:26;99715.03;;;15.72;88.89
76994;BME280;66749;47.406;18.822;2023-08-31T00:49:58;99721.97;;;15.73;88.96
76994;BME280;66749;47.406;18.822;2023-08-31T00:50:31;99711.44;;;15.73;88.73
76994;BME280;66749;47.406;18.822;2023-08-31T00:51:03;99719.34;;;15.73;88.68
76994;BME280;66749;47.406;18.822;2023-08-31T00:51:38;99720.00;;;15.75;88.29
76994;BME280;66749;47.406;18.822;2023-08-31T00:52:10;99721.81;;;15.74;88.52
76994;BME280;66749;47.406;18.822;2023-08-31T00:52:42;99720.31;;;15.72;88.94
76994;BME280;66749;47.406;18.822;2023-08-31T00:53:18;99719.34;;;15.73;88.37
76994;BME280;66749;47.406;18.822;2023-08-31T00:53:52;99721.97;;;15.73;88.56
76994;BME280;66749;47.406;18.822;2023-08-31T00:54:26;99722.78;;;15.73;89.01
76994;BME280;66749;47.406;18.822;2023-08-31T00:54:58;99722.78;;;15.73;88.54
76994;BME280;66749;47.406;18.822;2023-08-31T00:55:32;99726.09;;;15.75;88.12
76994;BME280;66749;47.406;18.822;2023-08-31T00:56:04;99731.66;;;15.72;88.74
76994;BME280;66749;47.406;18.822;2023-08-31T00:56:36;99717.66;;;15.72;88.63
76994;BME280;66749;47.406;18.822;2023-08-31T00:57:08;99718.59;;;15.71;88.40
76994;BME280;66749;47.406;18.822;2023-08-31T00:57:40;99724.69;;;15.71;88.82
76994;BME280;66749;47.406;18.822;2023-08-31T00:58:13;99719.44;;;15.71;88.56
76994;BME280;66749;47.406;18.822;2023-08-31T00:58:45;99730.09;;;15.70;89.21
76994;BME280;66749;47.406;18.822;2023-08-31T00:59:17;99723.19;;;15.69;88.92
76994;BME280;66749;47.406;18.822;2023-08-31T00:59:49;99724.84;;;15.70;89.40
76994;BME280;66749;47.406;18.822;2023-08-31T01:00:33;99721.25;;;15.71;88.85
76994;BME280;66749;47.406;18.822;2023-08-31T01:01:31;99721.13;;;15.72;88.66
76994;BME280;66749;47.406;18.822;2023-08-31T01:02:22;99726.09;;;15.66;89.39
76994;BME280;66749;47.406;18.822;2023-08-31T01:04:29;99719.19;;;15.65;89.26
76994;BME280;66749;47.406;18.822;2023-08-31T01:05:11;99729.81;;;15.63;89.91
76994;BME280;66749;47.406;18.822;2023-08-31T01:06:11;99736.75;;;15.64;89.59
76994;BME280;66749;47.406;18.822;2023-08-31T01:07:00;99731.34;;;15.66;89.97
76994;BME280;66749;47.406;18.822;2023-08-31T01:08:03;99727.63;;;15.68;89.96
76994;BME280;66749;47.406;18.822;2023-08-31T01:08:50;99731.75;;;15.71;89.24
76994;BME280;66749;47.406;18.822;2023-08-31T01:09:46;99726.78;;;15.68;89.70
76994;BME280;66749;47.406;18.822;2023-08-31T01:10:43;99722.50;;;15.67;89.23
76994;BME280;66749;47.406;18.822;2023-08-31T01:11:37;99727.75;;;15.67;89.29
76994;BME280;66749;47.406;18.822;2023-08-31T01:12:40;99731.91;;;15.69;89.19
76994;BME280;66749;47.406;18.822;2023-08-31T01:13:21;99729.28;;;15.69;89.86
76994;BME280;66749;47.406;18.822;2023-08-31T01:14:02;99726.66;;;15.69;89.24
76994;BME280;66749;47.406;18.822;2023-08-31T01:14:47;99724.16;;;15.68;89.59
76994;BME280;66749;47.406;18.822;2023-08-31T01:15:22;99729.41;;;15.68;89.83
76994;BME280;66749;47.406;18.822;2023-08-31T01:15:57;99732.03;;;15.68;89.27
76994;BME280;66749;47.406;18.822;2023-08-31T01:16:33;99734.41;;;15.71;89.42
76994;BME280;66749;47.406;18.822;2023-08-31T01:17:08;99729.97;;;15.71;89.53
76994;BME280;66749;47.406;18.822;2023-08-31T01:17:45;99736.91;;;15.72;89.02
76994;BME280;66749;47.406;18.822;2023-08-31T01:18:21;99733.56;;;15.70;89.53
76994;BME280;66749;47.406;18.822;2023-08-31T01:18:57;99731.75;;;15.71;88.87
76994;BME280;66749;47.406;18.822;2023-08-31T01:19:50;99735.38;;;15.70;89.09
76994;BME280;66749;47.406;18.822;2023-08-31T01:20:32;99737.03;;;15.71;89.17
76994;BME280;66749;47.406;18.822;2023-08-31T01:21:24;99729.03;;;15.72;89.00
76994;BME280;66749;47.406;18.822;2023-08-31T01:22:00;99735.22;;;15.71;89.54
76994;BME280;66749;47.406;18.822;2023-08-31T01:23:18;99728.31;;;15.70;89.40
76994;BME280;66749;47.406;18.822;2023-08-31T01:23:57;99728.59;;;15.67;89.74
76994;BME280;66749;47.406;18.822;2023-08-31T01:24:31;99727.75;;;15.67;89.18
76994;BME280;66749;47.406;18.822;2023-08-31T01:25:04;99731.06;;;15.69;89.69
76994;BME280;66749;47.406;18.822;2023-08-31T01:25:37;99731.06;;;15.69;89.29
76994;BME280;66749;47.406;18.822;2023-08-31T01:26:09;99725.81;;;15.69;90.04
76994;BME280;66749;47.406;18.822;2023-08-31T01:26:42;99739.09;;;15.67;89.64
76994;BME280;66749;47.406;18.822;2023-08-31T01:27:14;99727.47;;;15.70;90.06
76994;BME280;66749;47.406;18.822;2023-08-31T01:27:47;99735.22;;;15.71;89.49
76994;BME280;66749;47.406;18.822;2023-08-31T01:28:19;99735.94;;;15.73;89.29
76994;BME280;66749;47.406;18.822;2023-08-31T01:28:52;99728.06;;;15.73;89.60
76994;BME280;66749;47.406;18.822;2023-08-31T01:29:24;99736.91;;;15.72;89.67
76994;BME280;66749;47.406;18.822;2023-08-31T01:29:58;99731.66;;;15.72;89.64
76994;BME280;66749;47.406;18.822;2023-08-31T01:30:30;99728.06;;;15.73;89.75
76994;BME280;66749;47.406;18.822;2023-08-31T01:31:05;99732.47;;;15.73;89.88
76994;BME280;66749;47.406;18.822;2023-08-31T01:31:43;99731.66;;;15.72;89.53
76994;BME280;66749;47.406;18.822;2023-08-31T01:32:17;99734.28;;;15.72;89.79
76994;BME280;66749;47.406;18.822;2023-08-31T01:32:48;99734.41;;;15.71;90.17
76994;BME280;66749;47.406;18.822;2023-08-31T01:33:20;99740.22;;;15.74;89.89
76994;BME280;66749;47.406;18.822;2023-08-31T01:33:52;99732.47;;;15.73;89.61
76994;BME280;66749;47.406;18.822;2023-08-31T01:34:24;99728.19;;;15.72;90.00
76994;BME280;66749;47.406;18.822;2023-08-31T01:34:56;99730.81;;;15.72;89.38
76994;BME280;66749;47.406;18.822;2023-08-31T01:35:36;99732.47;;;15.73;89.72
76994;BME280;66749;47.406;18.822;2023-08-31T01:36:29;99734.41;;;15.71;89.28
76994;BME280;66749;47.406;18.822;2023-08-31T01:37:05;99727.75;;;15.67;89.25
76994;BME280;66749;47.406;18.822;2023-08-31T01:38:28;99727.63;;;15.68;89.75
76994;BME280;66749;47.406;18.822;2023-08-31T01:39:09;99724.84;;;15.70;89.70
76994;BME280;66749;47.406;18.822;2023-08-31T01:39:46;99725.66;;;15.70;89.65
76994;BME280;66749;47.406;18.822;2023-08-31T01:40:30;99727.47;;;15.70;89.52
76994;BME280;66749;47.406;18.822;2023-08-31T01:41:07;99729.13;;;15.71;89.17
76994;BME280;66749;47.406;18.822;2023-08-31T01:41:46;99728.59;;;15.67;89.45
76994;BME280;66749;47.406;18.822;2023-08-31T01:42:20;99731.06;;;15.69;89.26
76994;BME280;66749;47.406;18.822;2023-08-31T01:42:55;99726.78;;;15.68;89.41
76994;BME280;66749;47.406;18.822;2023-08-31T01:43:28;99725.25;;;15.65;89.26
76994;BME280;66749;47.406;18.822;2023-08-31T01:44:01;99731.22;;;15.67;89.62
76994;BME280;66749;47.406;18.822;2023-08-31T01:44:36;99731.91;;;15.69;89.15
76994;BME280;66749;47.406;18.822;2023-08-31T01:45:10;99726.94;;;15.66;89.18
76994;BME280;66749;47.406;18.822;2023-08-31T01:45:45;99730.38;;;15.67;89.95
76994;BME280;66749;47.406;18.822;2023-08-31T01:46:19;99738.28;;;15.67;89.90
76994;BME280;66749;47.406;18.822;2023-08-31T01:46:52;99734.69;;;15.68;89.18
76994;BME280;66749;47.406;18.822;2023-08-31T01:47:27;99729.69;;;15.65;89.31
76994;BME280;66749;47.406;18.822;2023-08-31T01:47:59;99738.53;;;15.64;89.74
76994;BME280;66749;47.406;18.822;2023-08-31T01:48:38;99732.56;;;15.62;89.57
76994;BME280;66749;47.406;18.822;2023-08-31T01:49:10;99727.44;;;15.60;90.23
76994;BME280;66749;47.406;18.822;2023-08-31T01:49:42;99729.13;;;15.61;89.80
76994;BME280;66749;47.406;18.822;2023-08-31T01:50:15;99727.19;;;15.63;90.06
76994;BME280;66749;47.406;18.822;2023-08-31T01:50:47;99729.13;;;15.61;89.83
76994;BME280;66749;47.406;18.822;2023-08-31T01:51:18;99722.16;;;15.60;89.61
76994;BME280;66749;47.406;18.822;2023-08-31T01:51:50;99732.56;;;15.62;90.20
76994;BME280;66749;47.406;18.822;2023-08-31T01:52:22;99726.34;;;15.63;89.63
76994;BME280;66749;47.406;18.822;2023-08-31T01:52:54;99728.25;;;15.61;89.94
76994;BME280;66749;47.406;18.822;2023-08-31T01:53:26;99725.38;;;15.64;89.66
76994;BME280;66749;47.406;18.822;2023-08-31T01:53:58;99733.28;;;15.64;90.08
76994;BME280;66749;47.406;18.822;2023-08-31T01:54:31;99734.13;;;15.64;89.77
76994;BME280;66749;47.406;18.822;2023-08-31T01:55:04;99724.78;;;15.60;90.19
76994;BME280;66749;47.406;18.822;2023-08-31T01:55:37;99723.00;;;15.61;90.05
76994;BME280;66749;47.406;18.822;2023-08-31T01:56:09;99728.97;;;15.63;90.01
76994;BME280;66749;47.406;18.822;2023-08-31T01:56:41;99736.03;;;15.62;90.00
76994;BME280;66749;47.406;18.822;2023-08-31T01:57:12;99734.38;;;15.61;89.65
76994;BME280;66749;47.406;18.822;2023-08-31T01:57:45;99730.63;;;15.64;89.88
76994;BME280;66749;47.406;18.822;2023-08-31T01:58:16;99732.31;;;15.65;90.04
76994;BME280;66749;47.406;18.822;2023-08-31T01:58:48;99733.16;;;15.65;90.23
76994;BME280;66749;47.406;18.822;2023-08-31T01:59:20;99727.91;;;15.65;89.88
76994;BME280;66749;47.406;18.822;2023-08-31T01:59:53;99725.38;;;15.64;89.70
76994;BME280;66749;47.406;18.822;2023-08-31T02:00:26;99730.53;;;15.65;90.21
76994;BME280;66749;47.406;18.822;2023-08-31T02:00:58;99727.75;;;15.67;90.06
76994;BME280;66749;47.406;18.822;2023-08-31T02:01:32;99728.88;;;15.64;89.86
76994;BME280;66749;47.406;18.822;2023-08-31T02:02:04;99728.88;;;15.64;90.03
76994;BME280;66749;47.406;18.822;2023-08-31T02:02:37;99726.94;;;15.66;90.03
76994;BME280;66749;47.406;18.822;2023-08-31T02:03:09;99724.16;;;15.68;89.89
76994;BME280;66749;47.406;18.822;2023-08-31T02:03:42;99730.25;;;15.68;89.37
76994;BME280;66749;47.406;18.822;2023-08-31T02:04:14;99733.56;;;15.70;89.83
76994;BME280;66749;47.406;18.822;2023-08-31T02:04:46;99727.63;;;15.68;89.96
76994;BME280;66749;47.406;18.822;2023-08-31T02:05:18;99735.38;;;15.70;89.89
76994;BME280;66749;47.406;18.822;2023-08-31T02:05:50;99727.47;;;15.70;89.90
76994;BME280;66749;47.406;18.822;2023-08-31T02:06:21;99732.59;;;15.71;89.54
76994;BME280;66749;47.406;18.822;2023-08-31T02:06:53;99729.97;;;15.71;89.90
76994;BME280;66749;47.406;18.822;2023-08-31T02:07:25;99730.94;;;15.70;89.03
76994;BME280;66749;47.406;18.822;2023-08-31T02:07:57;99731.91;;;15.69;89.66
76994;BME280;66749;47.406;18.822;2023-08-31T02:08:29;99732.03;;;15.68;89.33
76994;BME280;66749;47.406;18.822;2023-08-31T02:09:00;99731.22;;;15.67;89.86
76994;BME280;66749;47.406;18.822;2023-08-31T02:09:32;99734.97;;;15.65;89.70
76994;BME280;66749;47.406;18.822;2023-08-31T02:10:05;99730.78;;;15.62;89.14
76994;BME280;66749;47.406;18.822;2023-08-31T02:10:40;99730.53;;;15.65;89.13
76994;BME280;66749;47.406;18.822;2023-08-31T02:11:11;99734.13;;;15.64;89.16
76994;BME280;66749;47.406;18.822;2023-08-31T02:11:43;99731.50;;;15.64;89.16
76994;BME280;66749;47.406;18.822;2023-08-31T02:12:17;99734.00;;;15.66;89.16
76994;BME280;66749;47.406;18.822;2023-08-31T02:12:49;99734.13;;;15.64;89.24
76994;BME280;66749;47.406;18.822;2023-08-31T02:13:21;99728.88;;;15.64;89.60
76994;BME280;66749;47.406;18.822;2023-08-31T02:13:52;99733.16;;;15.65;89.26
76994;BME280;66749;47.406;18.822;2023-08-31T02:14:24;99727.91;;;15.65;89.30
76994;BME280;66749;47.406;18.822;2023-08-31T02:14:56;99734.97;;;15.65;89.36
76994;BME280;66749;47.406;18.822;2023-08-31T02:15:28;99734.00;;;15.66;90.04
76994;BME280;66749;47.406;18.822;2023-08-31T02:16:00;99733.03;;;15.67;89.60
76994;BME280;66749;47.406;18.822;2023-08-31T02:16:32;99730.63;;;15.64;89.85
76994;BME280;66749;47.406;18.822;2023-08-31T02:17:04;99724.78;;;15.60;89.28
76994;BME280;66749;47.406;18.822;2023-08-31T02:17:36;99738.78;;;15.61;89.78
76994;BME280;66749;47.406;18.822;2023-08-31T02:18:08;99738.66;;;15.62;89.27
76994;BME280;66749;47.406;18.822;2023-08-31T02:18:40;99739.50;;;15.63;89.16
76994;BME280;66749;47.406;18.822;2023-08-31T02:19:12;99736.88;;;15.63;89.25
76994;BME280;66749;47.406;18.822;2023-08-31T02:19:44;99736.16;;;15.61;89.21
76994;BME280;66749;47.406;18.822;2023-08-31T02:20:16;99740.31;;;15.63;89.95
76994;BME280;66749;47.406;18.822;2023-08-31T02:20:52;99740.31;;;15.63;89.64
76994;BME280;66749;47.406;18.822;2023-08-31T02:21:23;99744.91;;;15.61;89.73
76994;BME280;66749;47.406;18.822;2023-08-31T02:21:55;99737.84;;;15.62;89.73
76994;BME280;66749;47.406;18.822;2023-08-31T02:22:27;99742.97;;;15.63;89.35
76994;BME280;66749;47.406;18.822;2023-08-31T02:22:59;99741.28;;;15.62;89.31
76994;BME280;66749;47.406;18.822;2023-08-31T02:23:31;99741.41;;;15.61;89.24
76994;BME280;66749;47.406;18.822;2023-08-31T02:24:04;99750.03;;;15.63;89.91
76994;BME280;66749;47.406;18.822;2023-08-31T02:24:36;99749.56;;;15.58;89.95
76994;BME280;66749;47.406;18.822;2023-08-31T02:25:08;99746.81;;;15.59;89.85
76994;BME280;66749;47.406;18.822;2023-08-31T02:25:39;99744.91;;;15.61;89.54
76994;BME280;66749;47.406;18.822;2023-08-31T02:26:11;99750.03;;;15.63;89.98
76994;BME280;66749;47.406;18.822;2023-08-31T02:26:43;99747.28;;;15.64;89.59
76994;BME280;66749;47.406;18.822;2023-08-31T02:27:15;99753.38;;;15.65;89.38
76994;BME280;66749;47.406;18.822;2023-08-31T02:27:47;99750.75;;;15.65;89.96
76994;BME280;66749;47.406;18.822;2023-08-31T02:28:19;99749.78;;;15.66;89.28
76994;BME280;66749;47.406;18.822;2023-08-31T02:28:51;99751.44;;;15.67;89.21
76994;BME280;66749;47.406;18.822;2023-08-31T02:29:23;99744.50;;;15.66;89.23
76994;BME280;66749;47.406;18.822;2023-08-31T02:29:54;99756.69;;;15.67;89.77
76994;BME280;66749;47.406;18.822;2023-08-31T02:30:27;99757.38;;;15.69;89.70
76994;BME280;66749;47.406;18.822;2023-08-31T02:31:00;99755.72;;;15.68;89.22
76994;BME280;66749;47.406;18.822;2023-08-31T02:31:32;99751.28;;;15.68;89.72
76994;BME280;66749;47.406;18.822;2023-08-31T02:32:05;99750.19;;;15.71;89.82
76994;BME280;66749;47.406;18.822;2023-08-31T02:32:37;99751.88;;;15.72;89.26
76994;BME280;66749;47.406;18.822;2023-08-31T02:33:09;99756.28;;;15.71;89.34
76994;BME280;66749;47.406;18.822;2023-08-31T02:33:41;99757.97;;;15.72;89.83
76994;BME280;66749;47.406;18.822;2023-08-31T02:34:13;99758.78;;;15.73;89.40
76994;BME280;66749;47.406;18.822;2023-08-31T02:34:45;99758.78;;;15.73;89.63
76994;BME280;66749;47.406;18.822;2023-08-31T02:35:17;99756.03;;;15.74;89.54
76994;BME280;66749;47.406;18.822;2023-08-31T02:35:49;99762.94;;;15.75;89.06
76994;BME280;66749;47.406;18.822;2023-08-31T02:36:20;99750.75;;;15.74;89.09
76994;BME280;66749;47.406;18.822;2023-08-31T02:36:52;99756.03;;;15.74;89.66
76994;BME280;66749;47.406;18.822;2023-08-31T02:37:24;99753.53;;;15.73;89.03
76994;BME280;66749;47.406;18.822;2023-08-31T02:37:56;99757.13;;;15.72;89.40
76994;BME280;66749;47.406;18.822;2023-08-31T02:38:28;99751.88;;;15.72;89.30
76994;BME280;66749;47.406;18.822;2023-08-31T02:39:00;99753.78;;;15.70;89.13
76994;BME280;66749;47.406;18.822;2023-08-31T02:39:32;99757.38;;;15.69;89.76
76994;BME280;66749;47.406;18.822;2023-08-31T02:40:04;99745.19;;;15.68;89.23
76994;BME280;66749;47.406;18.822;2023-08-31T02:40:37;99759.03;;;15.70;89.13
76994;BME280;66749;47.406;18.822;2023-08-31T02:41:09;99753.78;;;15.70;88.85
76994;BME280;66749;47.406;18.822;2023-08-31T02:41:41;99751.28;;;15.68;88.88
76994;BME280;66749;47.406;18.822;2023-08-31T02:42:14;99754.91;;;15.67;88.97
76994;BME280;66749;47.406;18.822;2023-08-31T02:42:46;99750.59;;;15.66;89.64
76994;BME280;66749;47.406;18.822;2023-08-31T02:43:18;99750.47;;;15.68;88.94
76994;BME280;66749;47.406;18.822;2023-08-31T02:43:51;99754.91;;;15.67;88.95
76994;BME280;66749;47.406;18.822;2023-08-31T02:44:23;99753.78;;;15.70;88.83
76994;BME280;66749;47.406;18.822;2023-08-31T02:44:55;99750.47;;;15.68;89.41
76994;BME280;66749;47.406;18.822;2023-08-31T02:45:27;99745.19;;;15.68;89.29
76994;BME280;66749;47.406;18.822;2023-08-31T02:46:00;99747.00;;;15.67;88.87
76994;BME280;66749;47.406;18.822;2023-08-31T02:46:32;99741.88;;;15.66;89.29
76994;BME280;66749;47.406;18.822;2023-08-31T02:47:04;99741.88;;;15.66;89.28
76994;BME280;66749;47.406;18.822;2023-08-31T02:47:36;99743.53;;;15.67;89.02
76994;BME280;66749;47.406;18.822;2023-08-31T02:48:08;99747.97;;;15.66;88.92
76994;BME280;66749;47.406;18.822;2023-08-31T02:48:40;99752.41;;;15.66;89.31
76994;BME280;66749;47.406;18.822;2023-08-31T02:49:12;99749.78;;;15.66;89.34
76994;BME280;66749;47.406;18.822;2023-08-31T02:49:44;99750.59;;;15.66;89.02
76994;BME280;66749;47.406;18.822;2023-08-31T02:50:17;99747.13;;;15.66;89.09
76994;BME280;66749;47.406;18.822;2023-08-31T02:50:48;99753.22;;;15.66;88.65
76994;BME280;66749;47.406;18.822;2023-08-31T02:51:20;99753.38;;;15.65;88.94
76994;BME280;66749;47.406;18.822;2023-08-31T02:51:52;99754.31;;;15.64;89.11
76994;BME280;66749;47.406;18.822;2023-08-31T02:52:24;99752.66;;;15.63;89.04
76994;BME280;66749;47.406;18.822;2023-08-31T02:52:56;99751.00;;;15.62;89.00
76994;BME280;66749;47.406;18.822;2023-08-31T02:53:28;99754.44;;;15.62;89.56
76994;BME280;66749;47.406;18.822;2023-08-31T02:54:00;99754.31;;;15.64;88.73
76994;BME280;66749;47.406;18.822;2023-08-31T02:54:32;99744.91;;;15.61;88.64
76994;BME280;66749;47.406;18.822;2023-08-31T02:55:04;99751.00;;;15.62;88.67
76994;BME280;66749;47.406;18.822;2023-08-31T02:55:36;99758.75;;;15.63;88.70
76994;BME280;66749;47.406;18.822;2023-08-31T02:56:08;99751.56;;;15.65;88.75
76994;BME280;66749;47.406;18.822;2023-08-31T02:56:40;99741.41;;;15.61;89.43
76994;BME280;66749;47.406;18.822;2023-08-31T02:57:12;99744.19;;;15.59;88.75
76994;BME280;66749;47.406;18.822;2023-08-31T02:57:43;99742.63;;;15.57;89.45
76994;BME280;66749;47.406;18.822;2023-08-31T02:58:16;99748.16;;;15.53;89.48
76994;BME280;66749;47.406;18.822;2023-08-31T02:58:47;99746.22;;;15.55;89.52
76994;BME280;66749;47.406;18.822;2023-08-31T02:59:19;99745.25;;;15.57;89.44
76994;BME280;66749;47.406;18.822;2023-08-31T02:59:51;99741.69;;;15.58;88.97
76994;BME280;66749;47.406;18.822;2023-08-31T03:00:23;99743.59;;;15.55;88.58